sensor_id;sensor_type;location;lat;lon;timestamp;P1;durP1;ratioP1;P2;durP2;ratioP2
4305;SDS011;2166;49.926;8.608;2023-06-14T00:00:37;9.75;;;4.72;;
4305;SDS011;2166;49.926;8.608;2023-06-14T00:03:12;8.02;;;4.65;;
4305;SDS011;2166;49.926;8.608;2023-06-14T00:05:44;11.48;;;5.53;;
4305;SDS011;2166;49.926;8.608;2023-06-14T00:08:14;8.52;;;5.20;;
4305;SDS011;2166;49.926;8.608;2023-06-14T00:10:49;5.95;;;4.25;;
4305;SDS011;2166;49.926;8.608;2023-06-14T00:13:18;7.88;;;4.45;;
4305;SDS011;2166;49.926;8.608;2023-06-14T00:15:47;9.73;;;4.82;;
4305;SDS011;2166;49.926;8.608;2023-06-14T00:18:17;8.82;;;4.93;;
4305;SDS011;2166;49.926;8.608;2023-06-14T00:20:48;7.97;;;4.85;;
4305;SDS011;2166;49.926;8.608;2023-06-14T00:23:20;9.15;;;4.97;;
4305;SDS011;2166;49.926;8.608;2023-06-14T00:25:48;9.27;;;4.95;;
4305;SDS011;2166;49.926;8.608;2023-06-14T00:28:19;9.48;;;5.47;;
4305;SDS011;2166;49.926;8.608;2023-06-14T00:30:48;12.07;;;4.97;;
4305;SDS011;2166;49.926;8.608;2023-06-14T00:33:22;6.93;;;4.72;;
4305;SDS011;2166;49.926;8.608;2023-06-14T00:35:55;6.45;;;5.10;;
4305;SDS011;2166;49.926;8.608;2023-06-14T00:38:24;7.25;;;5.10;;
4305;SDS011;2166;49.926;8.608;2023-06-14T00:40:52;6.88;;;4.57;;
4305;SDS011;2166;49.926;8.608;2023-06-14T00:43:22;11.60;;;5.40;;
4305;SDS011;2166;49.926;8.608;2023-06-14T00:45:52;9.13;;;5.38;;
4305;SDS011;2166;49.926;8.608;2023-06-14T00:48:25;13.55;;;5.00;;
4305;SDS011;2166;49.926;8.608;2023-06-14T00:50:54;10.98;;;5.35;;
4305;SDS011;2166;49.926;8.608;2023-06-14T00:53:23;5.40;;;4.68;;
4305;SDS011;2166;49.926;8.608;2023-06-14T00:55:53;8.85;;;5.18;;
4305;SDS011;2166;49.926;8.608;2023-06-14T00:58:21;11.57;;;5.18;;
4305;SDS011;2166;49.926;8.608;2023-06-14T01:00:50;12.93;;;5.55;;
4305;SDS011;2166;49.926;8.608;2023-06-14T01:03:19;8.40;;;5.15;;
4305;SDS011;2166;49.926;8.608;2023-06-14T01:05:51;6.95;;;4.85;;
4305;SDS011;2166;49.926;8.608;2023-06-14T01:08:31;6.72;;;4.78;;
4305;SDS011;2166;49.926;8.608;2023-06-14T01:11:10;5.70;;;4.90;;
4305;SDS011;2166;49.926;8.608;2023-06-14T01:13:48;6.95;;;4.60;;
4305;SDS011;2166;49.926;8.608;2023-06-14T01:16:21;7.43;;;5.10;;
4305;SDS011;2166;49.926;8.608;2023-06-14T01:18:50;7.88;;;5.10;;
4305;SDS011;2166;49.926;8.608;2023-06-14T01:21:24;5.43;;;4.47;;
4305;SDS011;2166;49.926;8.608;2023-06-14T01:23:56;8.48;;;4.90;;
4305;SDS011;2166;49.926;8.608;2023-06-14T01:26:25;6.47;;;4.25;;
4305;SDS011;2166;49.926;8.608;2023-06-14T01:28:58;10.90;;;4.82;;
4305;SDS011;2166;49.926;8.608;2023-06-14T01:31:27;5.85;;;4.53;;
4305;SDS011;2166;49.926;8.608;2023-06-14T01:34:06;12.93;;;4.75;;
4305;SDS011;2166;49.926;8.608;2023-06-14T01:36:36;7.35;;;4.75;;
4305;SDS011;2166;49.926;8.608;2023-06-14T01:39:10;8.27;;;4.57;;
4305;SDS011;2166;49.926;8.608;2023-06-14T01:41:41;7.40;;;4.90;;
4305;SDS011;2166;49.926;8.608;2023-06-14T01:44:12;6.82;;;4.32;;
4305;SDS011;2166;49.926;8.608;2023-06-14T01:46:42;8.13;;;4.20;;
4305;SDS011;2166;49.926;8.608;2023-06-14T01:49:11;8.20;;;4.88;;
4305;SDS011;2166;49.926;8.608;2023-06-14T01:51:41;7.50;;;4.95;;
4305;SDS011;2166;49.926;8.608;2023-06-14T01:54:10;9.32;;;4.35;;
4305;SDS011;2166;49.926;8.608;2023-06-14T01:56:39;10.68;;;4.53;;
4305;SDS011;2166;49.926;8.608;2023-06-14T01:59:08;6.95;;;4.28;;
4305;SDS011;2166;49.926;8.608;2023-06-14T02:01:36;8.38;;;4.47;;
4305;SDS011;2166;49.926;8.608;2023-06-14T02:04:05;9.13;;;5.18;;
4305;SDS011;2166;49.926;8.608;2023-06-14T02:06:34;7.18;;;4.72;;
4305;SDS011;2166;49.926;8.608;2023-06-14T02:09:02;7.40;;;4.72;;
4305;SDS011;2166;49.926;8.608;2023-06-14T02:11:32;6.30;;;4.38;;
4305;SDS011;2166;49.926;8.608;2023-06-14T02:14:01;6.00;;;4.32;;
4305;SDS011;2166;49.926;8.608;2023-06-14T02:16:29;10.45;;;4.53;;
4305;SDS011;2166;49.926;8.608;2023-06-14T02:18:59;8.10;;;4.55;;
4305;SDS011;2166;49.926;8.608;2023-06-14T02:21:28;5.88;;;4.50;;
4305;SDS011;2166;49.926;8.608;2023-06-14T02:23:56;5.95;;;4.20;;
4305;SDS011;2166;49.926;8.608;2023-06-14T02:26:27;7.35;;;4.40;;
4305;SDS011;2166;49.926;8.608;2023-06-14T02:28:57;7.40;;;4.78;;
4305;SDS011;2166;49.926;8.608;2023-06-14T02:31:25;7.35;;;4.70;;
4305;SDS011;2166;49.926;8.608;2023-06-14T02:33:55;7.38;;;4.15;;
4305;SDS011;2166;49.926;8.608;2023-06-14T02:36:25;6.00;;;4.18;;
4305;SDS011;2166;49.926;8.608;2023-06-14T02:38:55;9.77;;;4.47;;
4305;SDS011;2166;49.926;8.608;2023-06-14T02:41:24;7.80;;;4.10;;
4305;SDS011;2166;49.926;8.608;2023-06-14T02:43:53;10.65;;;4.93;;
4305;SDS011;2166;49.926;8.608;2023-06-14T02:46:24;10.73;;;4.35;;
4305;SDS011;2166;49.926;8.608;2023-06-14T02:48:52;6.22;;;4.28;;
4305;SDS011;2166;49.926;8.608;2023-06-14T02:51:21;6.95;;;4.40;;
4305;SDS011;2166;49.926;8.608;2023-06-14T02:53:49;8.52;;;3.45;;
4305;SDS011;2166;49.926;8.608;2023-06-14T02:56:20;9.02;;;4.35;;
4305;SDS011;2166;49.926;8.608;2023-06-14T02:58:50;5.53;;;4.00;;
4305;SDS011;2166;49.926;8.608;2023-06-14T03:01:20;6.85;;;4.57;;
4305;SDS011;2166;49.926;8.608;2023-06-14T03:03:51;10.13;;;4.75;;
4305;SDS011;2166;49.926;8.608;2023-06-14T03:06:20;7.80;;;4.22;;
4305;SDS011;2166;49.926;8.608;2023-06-14T03:08:52;10.98;;;4.85;;
4305;SDS011;2166;49.926;8.608;2023-06-14T03:11:22;7.07;;;4.25;;
4305;SDS011;2166;49.926;8.608;2023-06-14T03:13:50;7.55;;;4.30;;
4305;SDS011;2166;49.926;8.608;2023-06-14T03:16:21;6.13;;;4.30;;
4305;SDS011;2166;49.926;8.608;2023-06-14T03:18:52;12.85;;;4.75;;
4305;SDS011;2166;49.926;8.608;2023-06-14T03:21:24;12.32;;;4.95;;
4305;SDS011;2166;49.926;8.608;2023-06-14T03:23:56;6.47;;;4.45;;
4305;SDS011;2166;49.926;8.608;2023-06-14T03:26:25;9.30;;;4.50;;
4305;SDS011;2166;49.926;8.608;2023-06-14T03:28:55;10.35;;;4.05;;
4305;SDS011;2166;49.926;8.608;2023-06-14T03:31:24;7.22;;;3.90;;
4305;SDS011;2166;49.926;8.608;2023-06-14T03:33:56;10.43;;;4.43;;
4305;SDS011;2166;49.926;8.608;2023-06-14T03:36:25;5.93;;;4.22;;
4305;SDS011;2166;49.926;8.608;2023-06-14T03:38:54;9.98;;;4.75;;
4305;SDS011;2166;49.926;8.608;2023-06-14T03:41:23;6.70;;;4.22;;
4305;SDS011;2166;49.926;8.608;2023-06-14T03:43:53;6.20;;;4.07;;
4305;SDS011;2166;49.926;8.608;2023-06-14T03:46:22;10.30;;;4.45;;
4305;SDS011;2166;49.926;8.608;2023-06-14T03:48:53;5.72;;;3.78;;
4305;SDS011;2166;49.926;8.608;2023-06-14T03:51:22;7.43;;;4.35;;
4305;SDS011;2166;49.926;8.608;2023-06-14T03:53:52;9.90;;;3.63;;
4305;SDS011;2166;49.926;8.608;2023-06-14T03:56:25;5.05;;;3.88;;
4305;SDS011;2166;49.926;8.608;2023-06-14T03:58:54;8.15;;;4.13;;
4305;SDS011;2166;49.926;8.608;2023-06-14T04:01:26;8.77;;;4.28;;
4305;SDS011;2166;49.926;8.608;2023-06-14T04:03:58;8.73;;;4.45;;
4305;SDS011;2166;49.926;8.608;2023-06-14T04:06:29;6.95;;;4.68;;
4305;SDS011;2166;49.926;8.608;2023-06-14T04:08:59;9.65;;;4.53;;
4305;SDS011;2166;49.926;8.608;2023-06-14T04:11:30;11.45;;;4.45;;
4305;SDS011;2166;49.926;8.608;2023-06-14T04:14:01;11.05;;;3.83;;
4305;SDS011;2166;49.926;8.608;2023-06-14T04:16:31;7.60;;;4.50;;
4305;SDS011;2166;49.926;8.608;2023-06-14T04:19:00;7.38;;;4.22;;
4305;SDS011;2166;49.926;8.608;2023-06-14T04:21:30;9.15;;;4.38;;
4305;SDS011;2166;49.926;8.608;2023-06-14T04:24:03;4.97;;;3.93;;
4305;SDS011;2166;49.926;8.608;2023-06-14T04:26:33;12.70;;;4.10;;
4305;SDS011;2166;49.926;8.608;2023-06-14T04:29:03;7.13;;;3.92;;
4305;SDS011;2166;49.926;8.608;2023-06-14T04:31:39;9.70;;;4.38;;
4305;SDS011;2166;49.926;8.608;2023-06-14T04:34:11;7.65;;;4.13;;
4305;SDS011;2166;49.926;8.608;2023-06-14T04:36:50;7.15;;;4.07;;
4305;SDS011;2166;49.926;8.608;2023-06-14T04:39:25;10.60;;;3.97;;
4305;SDS011;2166;49.926;8.608;2023-06-14T04:41:55;9.63;;;3.88;;
4305;SDS011;2166;49.926;8.608;2023-06-14T04:44:27;4.28;;;3.65;;
4305;SDS011;2166;49.926;8.608;2023-06-14T04:47:01;7.90;;;3.95;;
4305;SDS011;2166;49.926;8.608;2023-06-14T04:49:30;6.32;;;3.60;;
4305;SDS011;2166;49.926;8.608;2023-06-14T04:52:02;7.43;;;3.85;;
4305;SDS011;2166;49.926;8.608;2023-06-14T04:54:34;9.77;;;3.83;;
4305;SDS011;2166;49.926;8.608;2023-06-14T04:57:08;9.88;;;4.22;;
4305;SDS011;2166;49.926;8.608;2023-06-14T05:02:11;10.63;;;4.40;;
4305;SDS011;2166;49.926;8.608;2023-06-14T05:04:39;7.15;;;3.95;;
4305;SDS011;2166;49.926;8.608;2023-06-14T05:07:10;7.00;;;3.72;;
4305;SDS011;2166;49.926;8.608;2023-06-14T05:09:38;6.35;;;3.95;;
4305;SDS011;2166;49.926;8.608;2023-06-14T05:12:07;7.28;;;3.70;;
4305;SDS011;2166;49.926;8.608;2023-06-14T05:14:36;5.68;;;3.40;;
4305;SDS011;2166;49.926;8.608;2023-06-14T05:17:06;9.38;;;4.38;;
4305;SDS011;2166;49.926;8.608;2023-06-14T05:19:36;9.15;;;4.00;;
4305;SDS011;2166;49.926;8.608;2023-06-14T05:22:04;6.32;;;3.70;;
4305;SDS011;2166;49.926;8.608;2023-06-14T05:24:34;7.22;;;3.80;;
4305;SDS011;2166;49.926;8.608;2023-06-14T05:27:03;10.07;;;3.33;;
4305;SDS011;2166;49.926;8.608;2023-06-14T05:29:32;7.97;;;3.53;;
4305;SDS011;2166;49.926;8.608;2023-06-14T05:32:03;7.28;;;3.85;;
4305;SDS011;2166;49.926;8.608;2023-06-14T05:34:32;13.32;;;3.70;;
4305;SDS011;2166;49.926;8.608;2023-06-14T05:37:00;5.40;;;3.60;;
4305;SDS011;2166;49.926;8.608;2023-06-14T05:39:31;6.45;;;3.58;;
4305;SDS011;2166;49.926;8.608;2023-06-14T05:42:01;5.47;;;3.42;;
4305;SDS011;2166;49.926;8.608;2023-06-14T05:44:29;10.40;;;3.85;;
4305;SDS011;2166;49.926;8.608;2023-06-14T05:46:58;7.25;;;3.58;;
4305;SDS011;2166;49.926;8.608;2023-06-14T05:49:28;7.13;;;3.30;;
4305;SDS011;2166;49.926;8.608;2023-06-14T05:51:56;5.25;;;3.13;;
4305;SDS011;2166;49.926;8.608;2023-06-14T05:54:26;5.78;;;3.20;;
4305;SDS011;2166;49.926;8.608;2023-06-14T05:56:55;6.15;;;3.28;;
4305;SDS011;2166;49.926;8.608;2023-06-14T05:59:29;9.85;;;3.35;;
4305;SDS011;2166;49.926;8.608;2023-06-14T06:01:57;7.25;;;3.30;;
4305;SDS011;2166;49.926;8.608;2023-06-14T06:04:27;6.20;;;3.20;;
4305;SDS011;2166;49.926;8.608;2023-06-14T06:06:56;5.68;;;3.40;;
4305;SDS011;2166;49.926;8.608;2023-06-14T06:09:25;8.52;;;3.67;;
4305;SDS011;2166;49.926;8.608;2023-06-14T06:11:55;13.48;;;3.90;;
4305;SDS011;2166;49.926;8.608;2023-06-14T06:14:23;3.80;;;3.13;;
4305;SDS011;2166;49.926;8.608;2023-06-14T06:16:54;7.43;;;3.22;;
4305;SDS011;2166;49.926;8.608;2023-06-14T06:19:23;5.57;;;3.55;;
4305;SDS011;2166;49.926;8.608;2023-06-14T06:21:52;4.20;;;3.13;;
4305;SDS011;2166;49.926;8.608;2023-06-14T06:24:21;7.78;;;3.13;;
4305;SDS011;2166;49.926;8.608;2023-06-14T06:26:50;7.50;;;3.22;;
4305;SDS011;2166;49.926;8.608;2023-06-14T06:29:19;8.85;;;3.85;;
4305;SDS011;2166;49.926;8.608;2023-06-14T06:31:48;3.78;;;3.38;;
4305;SDS011;2166;49.926;8.608;2023-06-14T06:34:19;8.65;;;3.17;;
4305;SDS011;2166;49.926;8.608;2023-06-14T06:36:48;9.57;;;3.55;;
4305;SDS011;2166;49.926;8.608;2023-06-14T06:39:17;5.93;;;3.40;;
4305;SDS011;2166;49.926;8.608;2023-06-14T06:41:46;6.03;;;3.50;;
4305;SDS011;2166;49.926;8.608;2023-06-14T06:44:26;4.55;;;2.92;;
4305;SDS011;2166;49.926;8.608;2023-06-14T06:46:55;5.75;;;3.55;;
4305;SDS011;2166;49.926;8.608;2023-06-14T06:49:25;6.50;;;3.08;;
4305;SDS011;2166;49.926;8.608;2023-06-14T06:52:00;5.10;;;2.97;;
4305;SDS011;2166;49.926;8.608;2023-06-14T06:54:30;3.30;;;2.65;;
4305;SDS011;2166;49.926;8.608;2023-06-14T06:56:59;6.60;;;3.17;;
4305;SDS011;2166;49.926;8.608;2023-06-14T06:59:28;6.75;;;3.10;;
4305;SDS011;2166;49.926;8.608;2023-06-14T07:01:56;9.27;;;3.00;;
4305;SDS011;2166;49.926;8.608;2023-06-14T07:04:26;6.40;;;2.72;;
4305;SDS011;2166;49.926;8.608;2023-06-14T07:06:55;5.25;;;3.13;;
4305;SDS011;2166;49.926;8.608;2023-06-14T07:09:24;4.10;;;2.75;;
4305;SDS011;2166;49.926;8.608;2023-06-14T07:11:52;5.47;;;2.75;;
4305;SDS011;2166;49.926;8.608;2023-06-14T07:14:20;8.23;;;3.75;;
4305;SDS011;2166;49.926;8.608;2023-06-14T07:16:51;5.88;;;2.47;;
4305;SDS011;2166;49.926;8.608;2023-06-14T07:19:20;10.98;;;4.10;;
4305;SDS011;2166;49.926;8.608;2023-06-14T07:21:50;5.10;;;2.72;;
4305;SDS011;2166;49.926;8.608;2023-06-14T07:24:20;3.33;;;2.58;;
4305;SDS011;2166;49.926;8.608;2023-06-14T07:26:49;5.95;;;2.80;;
4305;SDS011;2166;49.926;8.608;2023-06-14T07:29:17;5.25;;;2.58;;
4305;SDS011;2166;49.926;8.608;2023-06-14T07:31:47;4.93;;;2.67;;
4305;SDS011;2166;49.926;8.608;2023-06-14T07:34:16;3.58;;;2.33;;
4305;SDS011;2166;49.926;8.608;2023-06-14T07:36:44;5.03;;;2.35;;
4305;SDS011;2166;49.926;8.608;2023-06-14T07:39:15;4.63;;;2.70;;
4305;SDS011;2166;49.926;8.608;2023-06-14T07:41:44;4.55;;;2.33;;
4305;SDS011;2166;49.926;8.608;2023-06-14T07:44:14;6.13;;;2.38;;
4305;SDS011;2166;49.926;8.608;2023-06-14T07:46:44;3.42;;;2.22;;
4305;SDS011;2166;49.926;8.608;2023-06-14T07:49:15;4.32;;;2.00;;
4305;SDS011;2166;49.926;8.608;2023-06-14T07:51:45;4.70;;;2.25;;
4305;SDS011;2166;49.926;8.608;2023-06-14T07:54:16;3.25;;;2.10;;
4305;SDS011;2166;49.926;8.608;2023-06-14T07:56:44;5.00;;;2.58;;
4305;SDS011;2166;49.926;8.608;2023-06-14T07:59:12;6.82;;;2.30;;
4305;SDS011;2166;49.926;8.608;2023-06-14T08:01:41;3.60;;;2.20;;
4305;SDS011;2166;49.926;8.608;2023-06-14T08:04:13;4.80;;;2.40;;
4305;SDS011;2166;49.926;8.608;2023-06-14T08:06:42;3.60;;;1.90;;
4305;SDS011;2166;49.926;8.608;2023-06-14T08:09:12;3.88;;;2.00;;
4305;SDS011;2166;49.926;8.608;2023-06-14T08:11:42;4.72;;;2.05;;
4305;SDS011;2166;49.926;8.608;2023-06-14T08:14:10;3.85;;;1.88;;
4305;SDS011;2166;49.926;8.608;2023-06-14T08:16:39;8.35;;;1.92;;
4305;SDS011;2166;49.926;8.608;2023-06-14T08:19:08;3.47;;;1.77;;
4305;SDS011;2166;49.926;8.608;2023-06-14T08:21:37;7.70;;;2.13;;
4305;SDS011;2166;49.926;8.608;2023-06-14T08:24:06;2.95;;;1.60;;
4305;SDS011;2166;49.926;8.608;2023-06-14T08:26:35;2.22;;;1.80;;
4305;SDS011;2166;49.926;8.608;2023-06-14T08:29:04;2.53;;;1.40;;
4305;SDS011;2166;49.926;8.608;2023-06-14T08:31:33;5.88;;;1.88;;
4305;SDS011;2166;49.926;8.608;2023-06-14T08:34:03;8.98;;;1.50;;
4305;SDS011;2166;49.926;8.608;2023-06-14T08:36:32;5.00;;;1.42;;
4305;SDS011;2166;49.926;8.608;2023-06-14T08:39:02;5.97;;;1.35;;
4305;SDS011;2166;49.926;8.608;2023-06-14T08:41:32;2.17;;;1.40;;
4305;SDS011;2166;49.926;8.608;2023-06-14T08:44:09;4.28;;;1.40;;
4305;SDS011;2166;49.926;8.608;2023-06-14T08:46:37;2.05;;;1.00;;
4305;SDS011;2166;49.926;8.608;2023-06-14T08:49:08;2.17;;;1.38;;
4305;SDS011;2166;49.926;8.608;2023-06-14T08:51:42;1.38;;;1.10;;
4305;SDS011;2166;49.926;8.608;2023-06-14T08:54:14;4.68;;;1.38;;
4305;SDS011;2166;49.926;8.608;2023-06-14T08:59:19;2.63;;;1.05;;
4305;SDS011;2166;49.926;8.608;2023-06-14T09:01:49;2.28;;;1.00;;
4305;SDS011;2166;49.926;8.608;2023-06-14T09:04:38;1.20;;;1.00;;
4305;SDS011;2166;49.926;8.608;2023-06-14T09:07:10;1.85;;;1.10;;
4305;SDS011;2166;49.926;8.608;2023-06-14T09:09:40;1.95;;;0.90;;
4305;SDS011;2166;49.926;8.608;2023-06-14T09:12:29;2.10;;;1.33;;
4305;SDS011;2166;49.926;8.608;2023-06-14T09:15:01;3.92;;;1.00;;
4305;SDS011;2166;49.926;8.608;2023-06-14T09:17:32;1.52;;;0.82;;
4305;SDS011;2166;49.926;8.608;2023-06-14T09:20:02;3.40;;;1.08;;
4305;SDS011;2166;49.926;8.608;2023-06-14T09:22:36;0.97;;;0.90;;
4305;SDS011;2166;49.926;8.608;2023-06-14T09:25:07;1.45;;;1.10;;
4305;SDS011;2166;49.926;8.608;2023-06-14T09:27:51;2.60;;;1.00;;
4305;SDS011;2166;49.926;8.608;2023-06-14T09:30:24;1.77;;;0.95;;
4305;SDS011;2166;49.926;8.608;2023-06-14T09:32:52;4.78;;;1.08;;
4305;SDS011;2166;49.926;8.608;2023-06-14T09:35:23;2.58;;;1.23;;
4305;SDS011;2166;49.926;8.608;2023-06-14T09:37:52;7.45;;;1.27;;
4305;SDS011;2166;49.926;8.608;2023-06-14T09:40:23;3.05;;;1.20;;
4305;SDS011;2166;49.926;8.608;2023-06-14T09:42:52;5.82;;;0.90;;
4305;SDS011;2166;49.926;8.608;2023-06-14T09:45:26;3.28;;;1.05;;
4305;SDS011;2166;49.926;8.608;2023-06-14T09:47:58;3.53;;;1.20;;
4305;SDS011;2166;49.926;8.608;2023-06-14T09:50:33;2.67;;;0.90;;
4305;SDS011;2166;49.926;8.608;2023-06-14T09:53:05;3.78;;;1.33;;
4305;SDS011;2166;49.926;8.608;2023-06-14T09:55:35;5.28;;;1.33;;
4305;SDS011;2166;49.926;8.608;2023-06-14T09:58:06;2.45;;;1.00;;
4305;SDS011;2166;49.926;8.608;2023-06-14T10:00:37;2.75;;;0.90;;
4305;SDS011;2166;49.926;8.608;2023-06-14T10:03:11;3.03;;;1.17;;
4305;SDS011;2166;49.926;8.608;2023-06-14T10:05:43;1.58;;;0.68;;
4305;SDS011;2166;49.926;8.608;2023-06-14T10:08:15;2.80;;;1.10;;
4305;SDS011;2166;49.926;8.608;2023-06-14T10:10:48;4.65;;;0.98;;
4305;SDS011;2166;49.926;8.608;2023-06-14T10:13:16;2.45;;;0.80;;
4305;SDS011;2166;49.926;8.608;2023-06-14T10:15:52;3.10;;;1.20;;
4305;SDS011;2166;49.926;8.608;2023-06-14T10:18:28;3.00;;;0.90;;
4305;SDS011;2166;49.926;8.608;2023-06-14T10:21:05;2.30;;;0.80;;
4305;SDS011;2166;49.926;8.608;2023-06-14T10:23:40;1.70;;;0.90;;
4305;SDS011;2166;49.926;8.608;2023-06-14T10:26:17;5.00;;;0.93;;
4305;SDS011;2166;49.926;8.608;2023-06-14T10:28:57;3.85;;;1.10;;
4305;SDS011;2166;49.926;8.608;2023-06-14T10:31:42;3.50;;;1.10;;
4305;SDS011;2166;49.926;8.608;2023-06-14T10:34:11;3.35;;;1.00;;
4305;SDS011;2166;49.926;8.608;2023-06-14T10:36:59;3.10;;;1.30;;
4305;SDS011;2166;49.926;8.608;2023-06-14T10:39:30;2.63;;;1.20;;
4305;SDS011;2166;49.926;8.608;2023-06-14T10:42:19;1.30;;;1.10;;
4305;SDS011;2166;49.926;8.608;2023-06-14T10:44:49;3.38;;;1.00;;
4305;SDS011;2166;49.926;8.608;2023-06-14T10:47:25;2.50;;;1.27;;
4305;SDS011;2166;49.926;8.608;2023-06-14T10:49:55;6.93;;;1.35;;
4305;SDS011;2166;49.926;8.608;2023-06-14T10:52:26;1.30;;;1.20;;
4305;SDS011;2166;49.926;8.608;2023-06-14T10:54:59;5.68;;;1.40;;
4305;SDS011;2166;49.926;8.608;2023-06-14T10:57:39;1.25;;;0.93;;
4305;SDS011;2166;49.926;8.608;2023-06-14T11:00:18;1.15;;;0.75;;
4305;SDS011;2166;49.926;8.608;2023-06-14T11:03:02;1.80;;;1.00;;
4305;SDS011;2166;49.926;8.608;2023-06-14T11:05:51;1.33;;;1.00;;
4305;SDS011;2166;49.926;8.608;2023-06-14T11:11:23;4.25;;;1.25;;
4305;SDS011;2166;49.926;8.608;2023-06-14T11:13:57;3.30;;;1.13;;
4305;SDS011;2166;49.926;8.608;2023-06-14T11:16:26;3.30;;;0.88;;
4305;SDS011;2166;49.926;8.608;2023-06-14T11:18:59;0.90;;;0.73;;
4305;SDS011;2166;49.926;8.608;2023-06-14T11:21:31;3.08;;;0.80;;
4305;SDS011;2166;49.926;8.608;2023-06-14T11:24:01;2.67;;;1.00;;
4305;SDS011;2166;49.926;8.608;2023-06-14T11:26:30;1.77;;;1.05;;
4305;SDS011;2166;49.926;8.608;2023-06-14T11:29:01;2.50;;;1.20;;
4305;SDS011;2166;49.926;8.608;2023-06-14T11:31:29;3.10;;;1.10;;
4305;SDS011;2166;49.926;8.608;2023-06-14T11:34:01;2.55;;;1.20;;
4305;SDS011;2166;49.926;8.608;2023-06-14T11:36:30;2.05;;;1.20;;
4305;SDS011;2166;49.926;8.608;2023-06-14T11:39:02;1.90;;;1.10;;
4305;SDS011;2166;49.926;8.608;2023-06-14T11:41:34;5.65;;;1.63;;
4305;SDS011;2166;49.926;8.608;2023-06-14T11:44:04;3.70;;;1.08;;
4305;SDS011;2166;49.926;8.608;2023-06-14T11:46:34;3.30;;;1.77;;
4305;SDS011;2166;49.926;8.608;2023-06-14T11:49:06;4.25;;;1.30;;
4305;SDS011;2166;49.926;8.608;2023-06-14T11:51:36;6.30;;;1.50;;
4305;SDS011;2166;49.926;8.608;2023-06-14T11:54:06;2.00;;;1.23;;
4305;SDS011;2166;49.926;8.608;2023-06-14T11:56:36;6.47;;;1.20;;
4305;SDS011;2166;49.926;8.608;2023-06-14T11:59:05;1.48;;;1.10;;
4305;SDS011;2166;49.926;8.608;2023-06-14T12:01:37;1.70;;;1.17;;
4305;SDS011;2166;49.926;8.608;2023-06-14T12:04:09;3.15;;;1.25;;
4305;SDS011;2166;49.926;8.608;2023-06-14T12:06:37;2.67;;;1.30;;
4305;SDS011;2166;49.926;8.608;2023-06-14T12:09:07;5.70;;;1.40;;
4305;SDS011;2166;49.926;8.608;2023-06-14T12:11:40;7.28;;;1.98;;
4305;SDS011;2166;49.926;8.608;2023-06-14T12:14:09;2.28;;;1.20;;
4305;SDS011;2166;49.926;8.608;2023-06-14T12:16:38;3.70;;;1.40;;
4305;SDS011;2166;49.926;8.608;2023-06-14T12:19:12;2.33;;;1.25;;
4305;SDS011;2166;49.926;8.608;2023-06-14T12:21:41;2.27;;;1.70;;
4305;SDS011;2166;49.926;8.608;2023-06-14T12:24:14;3.88;;;1.40;;
4305;SDS011;2166;49.926;8.608;2023-06-14T12:26:42;3.08;;;1.50;;
4305;SDS011;2166;49.926;8.608;2023-06-14T12:29:12;4.88;;;1.40;;
4305;SDS011;2166;49.926;8.608;2023-06-14T12:31:40;2.20;;;1.70;;
4305;SDS011;2166;49.926;8.608;2023-06-14T12:34:10;4.72;;;1.90;;
4305;SDS011;2166;49.926;8.608;2023-06-14T12:36:39;4.13;;;1.55;;
4305;SDS011;2166;49.926;8.608;2023-06-14T12:39:11;2.47;;;1.48;;
4305;SDS011;2166;49.926;8.608;2023-06-14T12:41:40;4.05;;;1.67;;
4305;SDS011;2166;49.926;8.608;2023-06-14T12:44:10;5.72;;;1.60;;
4305;SDS011;2166;49.926;8.608;2023-06-14T12:46:39;4.55;;;1.50;;
4305;SDS011;2166;49.926;8.608;2023-06-14T12:49:11;5.32;;;1.50;;
4305;SDS011;2166;49.926;8.608;2023-06-14T12:51:40;3.60;;;1.38;;
4305;SDS011;2166;49.926;8.608;2023-06-14T12:54:10;3.65;;;1.55;;
4305;SDS011;2166;49.926;8.608;2023-06-14T12:56:38;4.78;;;1.50;;
4305;SDS011;2166;49.926;8.608;2023-06-14T12:59:08;3.78;;;1.55;;
4305;SDS011;2166;49.926;8.608;2023-06-14T13:01:37;2.35;;;1.13;;
4305;SDS011;2166;49.926;8.608;2023-06-14T13:04:07;2.00;;;1.25;;
4305;SDS011;2166;49.926;8.608;2023-06-14T13:06:38;7.70;;;1.50;;
4305;SDS011;2166;49.926;8.608;2023-06-14T13:09:08;2.05;;;1.50;;
4305;SDS011;2166;49.926;8.608;2023-06-14T13:11:36;4.05;;;1.35;;
4305;SDS011;2166;49.926;8.608;2023-06-14T13:14:05;3.85;;;1.45;;
4305;SDS011;2166;49.926;8.608;2023-06-14T13:16:51;3.95;;;1.45;;
4305;SDS011;2166;49.926;8.608;2023-06-14T13:19:20;3.20;;;1.38;;
4305;SDS011;2166;49.926;8.608;2023-06-14T13:21:50;2.95;;;1.30;;
4305;SDS011;2166;49.926;8.608;2023-06-14T13:24:18;2.72;;;1.20;;
4305;SDS011;2166;49.926;8.608;2023-06-14T13:26:49;3.45;;;1.35;;
4305;SDS011;2166;49.926;8.608;2023-06-14T13:29:17;3.70;;;1.63;;
4305;SDS011;2166;49.926;8.608;2023-06-14T13:31:47;1.95;;;1.40;;
4305;SDS011;2166;49.926;8.608;2023-06-14T13:34:16;3.25;;;1.70;;
4305;SDS011;2166;49.926;8.608;2023-06-14T13:36:45;2.55;;;1.58;;
4305;SDS011;2166;49.926;8.608;2023-06-14T13:39:15;3.40;;;1.50;;
4305;SDS011;2166;49.926;8.608;2023-06-14T13:41:44;3.90;;;1.30;;
4305;SDS011;2166;49.926;8.608;2023-06-14T13:44:13;2.92;;;1.27;;
4305;SDS011;2166;49.926;8.608;2023-06-14T13:46:45;1.70;;;1.50;;
4305;SDS011;2166;49.926;8.608;2023-06-14T13:49:13;2.53;;;1.30;;
4305;SDS011;2166;49.926;8.608;2023-06-14T13:51:42;3.83;;;1.30;;
4305;SDS011;2166;49.926;8.608;2023-06-14T13:54:11;2.08;;;1.42;;
4305;SDS011;2166;49.926;8.608;2023-06-14T13:56:42;3.03;;;1.35;;
4305;SDS011;2166;49.926;8.608;2023-06-14T13:59:11;4.13;;;1.33;;
4305;SDS011;2166;49.926;8.608;2023-06-14T14:01:39;3.25;;;1.20;;
4305;SDS011;2166;49.926;8.608;2023-06-14T14:04:08;5.00;;;1.52;;
4305;SDS011;2166;49.926;8.608;2023-06-14T14:06:38;4.15;;;1.70;;
4305;SDS011;2166;49.926;8.608;2023-06-14T14:09:07;8.18;;;2.03;;
4305;SDS011;2166;49.926;8.608;2023-06-14T14:11:35;2.30;;;1.52;;
4305;SDS011;2166;49.926;8.608;2023-06-14T14:14:05;3.22;;;1.30;;
4305;SDS011;2166;49.926;8.608;2023-06-14T14:16:35;2.80;;;1.30;;
4305;SDS011;2166;49.926;8.608;2023-06-14T14:19:04;2.70;;;1.55;;
4305;SDS011;2166;49.926;8.608;2023-06-14T14:21:33;3.20;;;1.50;;
4305;SDS011;2166;49.926;8.608;2023-06-14T14:24:02;3.90;;;1.30;;
4305;SDS011;2166;49.926;8.608;2023-06-14T14:26:30;4.38;;;1.70;;
4305;SDS011;2166;49.926;8.608;2023-06-14T14:29:03;3.75;;;1.55;;
4305;SDS011;2166;49.926;8.608;2023-06-14T14:31:34;1.98;;;1.77;;
4305;SDS011;2166;49.926;8.608;2023-06-14T14:34:02;3.78;;;1.50;;
4305;SDS011;2166;49.926;8.608;2023-06-14T14:36:32;5.32;;;1.38;;
4305;SDS011;2166;49.926;8.608;2023-06-14T14:39:13;3.15;;;1.63;;
4305;SDS011;2166;49.926;8.608;2023-06-14T14:41:43;2.35;;;1.42;;
4305;SDS011;2166;49.926;8.608;2023-06-14T14:44:14;2.72;;;1.40;;
4305;SDS011;2166;49.926;8.608;2023-06-14T14:46:46;4.40;;;1.70;;
4305;SDS011;2166;49.926;8.608;2023-06-14T14:49:19;3.03;;;1.40;;
4305;SDS011;2166;49.926;8.608;2023-06-14T14:51:54;1.10;;;1.00;;
4305;SDS011;2166;49.926;8.608;2023-06-14T14:54:47;2.30;;;1.40;;
4305;SDS011;2166;49.926;8.608;2023-06-14T14:57:16;1.73;;;1.40;;
4305;SDS011;2166;49.926;8.608;2023-06-14T14:59:44;2.13;;;1.45;;
4305;SDS011;2166;49.926;8.608;2023-06-14T15:02:14;2.13;;;1.13;;
4305;SDS011;2166;49.926;8.608;2023-06-14T15:04:43;5.07;;;1.27;;
4305;SDS011;2166;49.926;8.608;2023-06-14T15:07:12;1.10;;;1.00;;
4305;SDS011;2166;49.926;8.608;2023-06-14T15:09:41;2.85;;;1.60;;
4305;SDS011;2166;49.926;8.608;2023-06-14T15:12:10;3.63;;;1.80;;
4305;SDS011;2166;49.926;8.608;2023-06-14T15:14:38;1.42;;;1.30;;
4305;SDS011;2166;49.926;8.608;2023-06-14T15:17:08;6.80;;;1.52;;
4305;SDS011;2166;49.926;8.608;2023-06-14T15:19:39;3.10;;;1.20;;
4305;SDS011;2166;49.926;8.608;2023-06-14T15:22:07;2.40;;;1.30;;
4305;SDS011;2166;49.926;8.608;2023-06-14T15:24:36;4.35;;;1.30;;
4305;SDS011;2166;49.926;8.608;2023-06-14T15:27:09;4.18;;;1.25;;
4305;SDS011;2166;49.926;8.608;2023-06-14T15:29:39;3.55;;;1.20;;
4305;SDS011;2166;49.926;8.608;2023-06-14T15:32:09;2.92;;;1.10;;
4305;SDS011;2166;49.926;8.608;2023-06-14T15:34:40;3.88;;;0.90;;
4305;SDS011;2166;49.926;8.608;2023-06-14T15:37:08;2.53;;;1.00;;
4305;SDS011;2166;49.926;8.608;2023-06-14T15:39:37;2.90;;;1.23;;
4305;SDS011;2166;49.926;8.608;2023-06-14T15:42:06;1.65;;;1.30;;
4305;SDS011;2166;49.926;8.608;2023-06-14T15:44:35;2.38;;;1.30;;